Time;durP1;ratioP1;P1;durP2;ratioP2;P2;SDS_P1;SDS_P2;PMS_P1;PMS_P2;Temp;Humidity;BMP_temperature;BMP_pressure;BME280_temperature;BME280_humidity;BME280_pressure;Samples;Min_cycle;Max_cycle;Signal;HPM_P1;HPM_P2
2023/01/28 00:00:34;;;;;;;38.42;15.60;;;;;;;;;;5016023;28;20054;-79
2023/01/28 00:03:01;;;;;;;40.50;17.10;;;;;;;;;;5015140;28;20055;-79
2023/01/28 00:05:28;;;;;;;36.80;16.80;;;;;;;;;;5002206;28;20047;-79
2023/01/28 00:07:55;;;;;;;37.35;16.70;;;;;;;;;;4995267;28;20053;-79
2023/01/28 00:10:22;;;;;;;34.25;16.02;;;;;;;;;;4995603;28;20050;-80
2023/01/28 00:12:49;;;;;;;37.95;16.20;;;;;;;;;;4995654;28;20054;-79
2023/01/28 00:15:16;;;;;;;41.22;16.80;;;;;;;;;;4995647;28;20051;-79
2023/01/28 00:17:44;;;;;;;47.85;19.85;;;;;;;;;;4995894;28;20109;-79
2023/01/28 00:20:11;;;;;;;40.03;16.95;;;;;;;;;;4995769;28;20137;-80
2023/01/28 00:22:38;;;;;;;39.72;15.70;;;;;;;;;;5011795;28;20054;-80
2023/01/28 00:25:05;;;;;;;36.60;15.82;;;;;;;;;;5015646;28;20128;-79
2023/01/28 00:27:32;;;;;;;38.22;16.65;;;;;;;;;;5015208;28;20463;-80
2023/01/28 00:29:58;;;;;;;35.47;15.23;;;;;;;;;;5015322;28;20088;-80
2023/01/28 00:32:25;;;;;;;38.72;16.48;;;;;;;;;;5015020;28;20142;-79
2023/01/28 00:34:53;;;;;;;37.95;15.75;;;;;;;;;;5015407;28;20052;-79
2023/01/28 00:37:20;;;;;;;40.20;15.82;;;;;;;;;;5014784;28;20050;-78
2023/01/28 00:39:46;;;;;;;39.58;15.50;;;;;;;;;;4997040;28;20527;-80
2023/01/28 00:42:13;;;;;;;38.47;16.25;;;;;;;;;;5008064;28;20112;-78
2023/01/28 00:44:40;;;;;;;38.95;16.17;;;;;;;;;;5023025;28;20504;-79
2023/01/28 00:47:07;;;;;;;37.42;15.88;;;;;;;;;;5023847;28;20053;-80
2023/01/28 00:49:34;;;;;;;37.70;15.77;;;;;;;;;;5023298;28;20050;-78
2023/01/28 00:52:02;;;;;;;40.60;16.50;;;;;;;;;;5004757;28;20074;-78
2023/01/28 00:54:29;;;;;;;40.50;16.75;;;;;;;;;;4995056;28;20093;-79
2023/01/28 00:56:56;;;;;;;41.45;17.25;;;;;;;;;;4994821;28;20125;-78
2023/01/28 00:59:22;;;;;;;39.92;15.32;;;;;;;;;;4994775;28;20411;-78
2023/01/28 01:01:49;;;;;;;41.22;17.52;;;;;;;;;;4994155;28;20054;-79
2023/01/28 01:04:25;;;;;;;40.70;17.88;;;;;;;;;;4994679;28;20073;-78
2023/01/28 01:06:52;;;;;;;40.60;16.13;;;;;;;;;;4994320;28;20057;-80
2023/01/28 01:09:21;;;;;;;35.25;16.02;;;;;;;;;;5011692;28;20411;-81
2023/01/28 01:11:48;;;;;;;43.47;16.52;;;;;;;;;;5019883;28;20083;-81
2023/01/28 01:14:14;;;;;;;38.17;16.52;;;;;;;;;;5024844;28;20085;-79
2023/01/28 01:16:41;;;;;;;39.90;16.17;;;;;;;;;;5008478;28;20069;-81
2023/01/28 01:19:08;;;;;;;43.45;16.92;;;;;;;;;;5003128;28;20078;-81
2023/01/28 01:21:34;;;;;;;39.63;16.77;;;;;;;;;;5003329;28;20049;-80
2023/01/28 01:24:01;;;;;;;36.83;15.32;;;;;;;;;;5004256;28;20076;-82
2023/01/28 01:26:29;;;;;;;40.90;15.43;;;;;;;;;;5005324;28;20042;-80
2023/01/28 01:28:55;;;;;;;44.17;16.70;;;;;;;;;;5015824;28;20030;-80
2023/01/28 01:31:23;;;;;;;41.97;16.90;;;;;;;;;;5015186;28;20054;-77
2023/01/28 01:33:51;;;;;;;41.03;16.42;;;;;;;;;;5016120;28;20042;-78
2023/01/28 01:36:19;;;;;;;35.17;15.70;;;;;;;;;;5032733;28;20074;-78
2023/01/28 01:38:45;;;;;;;41.17;16.45;;;;;;;;;;5028790;28;20065;-79
2023/01/28 01:41:23;;;;;;;36.15;16.05;;;;;;;;;;5034331;28;20105;-78
2023/01/28 01:43:53;;;;;;;39.90;16.08;;;;;;;;;;5036194;28;20097;-78
2023/01/28 01:46:24;;;;;;;40.53;16.40;;;;;;;;;;5020111;28;20073;-79
2023/01/28 01:48:52;;;;;;;38.95;15.23;;;;;;;;;;5012743;28;20105;-79
2023/01/28 01:51:24;;;;;;;41.22;15.77;;;;;;;;;;5011036;28;20046;-80
2023/01/28 01:53:54;;;;;;;37.85;16.00;;;;;;;;;;5009271;28;20057;-80
2023/01/28 01:56:24;;;;;;;37.80;15.85;;;;;;;;;;5025711;28;20119;-80
2023/01/28 01:58:54;;;;;;;39.55;15.55;;;;;;;;;;5031915;28;20065;-79
2023/01/28 02:01:24;;;;;;;42.95;17.10;;;;;;;;;;5033030;28;20088;-78
2023/01/28 02:03:55;;;;;;;41.23;16.83;;;;;;;;;;5027926;28;20109;-80
2023/01/28 02:06:23;;;;;;;37.17;15.27;;;;;;;;;;5017201;28;20098;-79
2023/01/28 02:08:49;;;;;;;41.42;17.10;;;;;;;;;;5014587;28;20049;-78
2023/01/28 02:14:44;;;;;;;38.70;14.43;;;;;;;;;;5016715;28;20041;-78
2023/01/28 02:17:11;;;;;;;35.38;15.13;;;;;;;;;;5015425;28;20106;-76
2023/01/28 02:19:40;;;;;;;42.90;17.00;;;;;;;;;;5016212;28;20057;-78
2023/01/28 02:22:33;;;;;;;40.67;15.65;;;;;;;;;;5016168;28;20034;-77
2023/01/28 02:25:22;;;;;;;33.17;14.48;;;;;;;;;;5025897;28;20060;-76
2023/01/28 02:28:07;;;;;;;38.92;15.63;;;;;;;;;;5035495;28;20037;-77
2023/01/28 02:30:39;;;;;;;40.80;15.85;;;;;;;;;;5028211;28;20042;-77
2023/01/28 02:33:14;;;;;;;40.22;14.68;;;;;;;;;;5016658;28;20085;-77
2023/01/28 02:35:46;;;;;;;36.42;16.48;;;;;;;;;;5016640;28;20034;-78
2023/01/28 02:38:18;;;;;;;44.88;16.92;;;;;;;;;;5021459;28;20093;-78
2023/01/28 02:41:03;;;;;;;39.22;15.98;;;;;;;;;;5036303;28;20054;-78
2023/01/28 02:43:33;;;;;;;36.28;15.27;;;;;;;;;;5034712;28;20030;-79
2023/01/28 02:48:46;;;;;;;36.05;15.80;;;;;;;;;;5018908;28;20108;-80
2023/01/28 02:51:21;;;;;;;35.67;15.93;;;;;;;;;;5026693;28;20050;-79
2023/01/28 02:53:56;;;;;;;39.03;16.33;;;;;;;;;;5032409;28;20061;-79
2023/01/28 02:56:30;;;;;;;47.35;16.40;;;;;;;;;;5032624;28;20037;-79
2023/01/28 02:59:29;;;;;;;41.83;16.58;;;;;;;;;;5027731;28;20049;-78
2023/01/28 03:01:57;;;;;;;41.67;17.67;;;;;;;;;;5033650;28;20061;-78
2023/01/28 03:04:29;;;;;;;36.70;15.38;;;;;;;;;;5032944;28;20046;-80
2023/01/28 03:07:02;;;;;;;39.58;16.25;;;;;;;;;;5007452;28;20054;-79
2023/01/28 03:09:29;;;;;;;35.20;16.13;;;;;;;;;;5002319;28;20100;-81
2023/01/28 03:37:15;;;;;;;36.35;15.30;;;;;;;;;;4998579;28;20060;-81
2023/01/28 03:39:42;;;;;;;38.97;14.95;;;;;;;;;;5015767;28;20420;-82
2023/01/28 03:42:11;;;;;;;34.75;14.40;;;;;;;;;;5017792;28;20046;-82
2023/01/28 03:44:49;;;;;;;38.55;15.77;;;;;;;;;;5017788;28;20045;-81
2023/01/28 03:47:18;;;;;;;37.63;15.43;;;;;;;;;;5018713;28;20476;-81
2023/01/28 03:49:47;;;;;;;34.17;14.05;;;;;;;;;;5011567;28;20047;-81
2023/01/28 03:52:17;;;;;;;36.70;14.85;;;;;;;;;;5014848;28;20053;-81
2023/01/28 03:54:46;;;;;;;36.08;14.70;;;;;;;;;;5019662;28;20105;-81
2023/01/28 03:57:12;;;;;;;40.17;16.05;;;;;;;;;;5019485;28;20046;-82
2023/01/28 03:59:39;;;;;;;35.30;14.50;;;;;;;;;;5015717;28;20054;-81
2023/01/28 04:02:06;;;;;;;41.95;16.65;;;;;;;;;;4999486;28;20046;-80
2023/01/28 04:04:33;;;;;;;32.17;14.82;;;;;;;;;;5000735;28;20133;-80
2023/01/28 04:07:00;;;;;;;36.35;15.02;;;;;;;;;;5018311;28;20046;-80
2023/01/28 04:09:27;;;;;;;36.88;14.18;;;;;;;;;;5002992;28;20046;-81
2023/01/28 04:11:53;;;;;;;36.90;16.30;;;;;;;;;;4998103;28;20050;-81
2023/01/28 04:14:20;;;;;;;38.35;13.57;;;;;;;;;;4999450;28;20138;-82
2023/01/28 04:16:46;;;;;;;31.40;13.88;;;;;;;;;;5002303;28;20050;-79
2023/01/28 04:19:14;;;;;;;34.67;14.73;;;;;;;;;;4999293;28;20429;-81
2023/01/28 04:21:42;;;;;;;37.05;15.02;;;;;;;;;;5009329;28;20046;-79
2023/01/28 04:24:09;;;;;;;34.50;14.65;;;;;;;;;;5017029;28;20652;-82
2023/01/28 04:26:35;;;;;;;35.50;15.20;;;;;;;;;;5000751;28;20073;-80
2023/01/28 04:29:02;;;;;;;38.00;15.43;;;;;;;;;;4996154;28;20046;-81
2023/01/28 04:31:29;;;;;;;33.08;13.45;;;;;;;;;;5011287;28;20042;-78
2023/01/28 04:33:56;;;;;;;37.13;15.23;;;;;;;;;;5019226;28;20501;-82
2023/01/28 04:36:22;;;;;;;36.50;15.55;;;;;;;;;;5016960;28;20049;-82
2023/01/28 04:38:51;;;;;;;36.38;13.55;;;;;;;;;;5017281;28;20136;-80
2023/01/28 04:41:17;;;;;;;34.90;14.85;;;;;;;;;;5008606;28;20054;-80
2023/01/28 04:43:44;;;;;;;33.08;13.73;;;;;;;;;;4998498;28;20049;-81
2023/01/28 04:46:11;;;;;;;34.03;14.60;;;;;;;;;;4998035;28;20053;-82
2023/01/28 04:48:37;;;;;;;33.40;13.13;;;;;;;;;;4997849;28;20046;-79
2023/01/28 04:51:05;;;;;;;37.17;13.82;;;;;;;;;;4998536;28;20042;-81
2023/01/28 04:53:31;;;;;;;34.53;14.35;;;;;;;;;;5013338;28;20641;-81
2023/01/28 04:55:59;;;;;;;38.67;15.23;;;;;;;;;;5017639;28;20078;-80
2023/01/28 04:58:26;;;;;;;33.63;14.10;;;;;;;;;;5017855;28;20519;-81
2023/01/28 05:00:55;;;;;;;35.33;15.13;;;;;;;;;;5017912;28;20049;-82
2023/01/28 05:03:22;;;;;;;36.33;13.70;;;;;;;;;;5017200;28;20093;-83
2023/01/28 05:05:48;;;;;;;36.92;15.27;;;;;;;;;;5026414;28;20105;-78
2023/01/28 05:08:18;;;;;;;38.08;15.98;;;;;;;;;;5029474;28;20489;-80
2023/01/28 05:10:44;;;;;;;34.33;14.82;;;;;;;;;;5032091;28;20050;-78
2023/01/28 05:13:13;;;;;;;33.83;14.30;;;;;;;;;;5014454;28;20073;-79
2023/01/28 05:15:39;;;;;;;33.25;14.55;;;;;;;;;;5009736;28;20056;-80
2023/01/28 05:20:33;;;;;;;38.22;15.63;;;;;;;;;;5011364;28;20104;-54
2023/01/28 05:23:00;;;;;;;34.08;15.18;;;;;;;;;;5012528;28;20054;-53
2023/01/28 05:25:27;;;;;;;33.65;13.70;;;;;;;;;;5013071;28;20462;-51
2023/01/28 05:27:54;;;;;;;39.78;14.68;;;;;;;;;;5013036;28;20042;-55
2023/01/28 05:30:22;;;;;;;36.47;14.65;;;;;;;;;;5013013;28;20042;-51
2023/01/28 05:32:49;;;;;;;35.42;14.57;;;;;;;;;;5012755;28;20053;-51
2023/01/28 05:35:17;;;;;;;34.53;14.18;;;;;;;;;;5013063;28;20041;-53
2023/01/28 05:37:43;;;;;;;35.30;14.40;;;;;;;;;;5012583;28;20046;-49
2023/01/28 05:40:11;;;;;;;38.00;14.43;;;;;;;;;;5012611;28;20141;-50
2023/01/28 05:42:38;;;;;;;32.83;15.35;;;;;;;;;;5012722;28;20104;-55
2023/01/28 05:45:06;;;;;;;35.95;13.82;;;;;;;;;;5012674;28;20045;-52
2023/01/28 05:47:35;;;;;;;32.88;14.02;;;;;;;;;;5013029;28;20073;-54
2023/01/28 05:50:02;;;;;;;33.63;14.23;;;;;;;;;;5012818;28;20108;-51
2023/01/28 05:52:29;;;;;;;32.83;13.80;;;;;;;;;;5013059;28;20057;-54
2023/01/28 05:54:55;;;;;;;35.80;15.73;;;;;;;;;;5012599;28;20061;-52
2023/01/28 05:57:22;;;;;;;35.03;14.77;;;;;;;;;;5012242;28;20050;-52
2023/01/28 05:59:49;;;;;;;38.20;14.32;;;;;;;;;;5012360;28;20064;-50
2023/01/28 06:02:16;;;;;;;33.38;14.75;;;;;;;;;;5012174;28;20392;-51
2023/01/28 06:04:44;;;;;;;35.80;15.18;;;;;;;;;;5012581;28;20038;-49
2023/01/28 06:07:12;;;;;;;33.97;13.35;;;;;;;;;;5012650;28;20054;-52
2023/01/28 06:09:39;;;;;;;36.38;15.50;;;;;;;;;;5012208;28;20050;-50
2023/01/28 06:12:06;;;;;;;34.03;14.23;;;;;;;;;;5011707;28;20046;-52
2023/01/28 06:14:33;;;;;;;33.20;14.75;;;;;;;;;;5012104;28;20172;-52
2023/01/28 06:17:00;;;;;;;34.72;14.63;;;;;;;;;;5011920;28;20050;-52
2023/01/28 06:19:27;;;;;;;35.20;13.32;;;;;;;;;;5012261;28;20049;-51
2023/01/28 06:21:55;;;;;;;36.65;14.63;;;;;;;;;;5012480;28;20058;-50
2023/01/28 06:24:22;;;;;;;33.80;15.95;;;;;;;;;;5012322;28;20553;-50
2023/01/28 06:26:49;;;;;;;32.00;14.85;;;;;;;;;;5012475;28;20053;-50
2023/01/28 06:29:15;;;;;;;36.28;13.55;;;;;;;;;;5012071;28;20096;-56
2023/01/28 06:31:42;;;;;;;36.80;15.70;;;;;;;;;;5011990;28;20117;-56
2023/01/28 06:34:10;;;;;;;30.23;14.05;;;;;;;;;;5012224;28;20057;-48
2023/01/28 06:36:37;;;;;;;34.17;14.73;;;;;;;;;;5012262;28;20448;-55
2023/01/28 06:39:06;;;;;;;30.60;13.52;;;;;;;;;;5012536;28;20056;-53
2023/01/28 06:41:33;;;;;;;34.03;13.43;;;;;;;;;;5012132;28;20093;-53
2023/01/28 06:43:59;;;;;;;30.45;13.32;;;;;;;;;;5012257;28;20082;-55
2023/01/28 06:46:26;;;;;;;34.28;15.15;;;;;;;;;;5012168;28;20553;-52
2023/01/28 06:48:53;;;;;;;34.35;15.05;;;;;;;;;;5013618;28;20072;-53
2023/01/28 06:51:20;;;;;;;38.63;14.40;;;;;;;;;;5015913;28;20068;-49
2023/01/28 06:53:47;;;;;;;33.00;12.82;;;;;;;;;;5015903;28;20050;-52
2023/01/28 06:56:15;;;;;;;33.15;13.07;;;;;;;;;;5015785;28;20053;-50
2023/01/28 06:58:42;;;;;;;34.20;13.98;;;;;;;;;;5015862;28;20058;-49
2023/01/28 07:01:09;;;;;;;31.15;13.68;;;;;;;;;;5015733;28;20085;-50
2023/01/28 07:03:37;;;;;;;30.40;13.95;;;;;;;;;;5015888;28;20081;-52
2023/01/28 07:06:05;;;;;;;31.20;12.25;;;;;;;;;;5015691;28;20049;-51
2023/01/28 07:08:32;;;;;;;34.55;14.10;;;;;;;;;;5015410;28;20466;-53
2023/01/28 07:10:59;;;;;;;32.20;13.70;;;;;;;;;;5015678;28;20526;-51
2023/01/28 07:13:27;;;;;;;30.10;12.13;;;;;;;;;;5015543;28;20085;-53
2023/01/28 07:15:54;;;;;;;29.77;12.50;;;;;;;;;;5015687;28;20080;-55
2023/01/28 07:18:21;;;;;;;32.17;12.48;;;;;;;;;;5015225;28;20057;-51
2023/01/28 07:20:48;;;;;;;28.38;11.82;;;;;;;;;;5015602;28;20104;-52
2023/01/28 07:23:15;;;;;;;34.83;13.45;;;;;;;;;;5015440;28;20498;-52
2023/01/28 07:25:42;;;;;;;31.20;12.80;;;;;;;;;;5015232;28;20052;-51
2023/01/28 07:28:08;;;;;;;32.28;13.40;;;;;;;;;;5015160;28;20416;-53
2023/01/28 07:30:36;;;;;;;33.05;14.48;;;;;;;;;;5014967;28;20205;-54
2023/01/28 07:33:03;;;;;;;30.35;12.25;;;;;;;;;;5014913;28;20049;-53
2023/01/28 07:35:31;;;;;;;31.75;12.68;;;;;;;;;;5014923;28;20061;-51
2023/01/28 07:37:59;;;;;;;33.00;12.68;;;;;;;;;;5015136;28;20137;-53
2023/01/28 07:40:27;;;;;;;32.13;12.93;;;;;;;;;;5014792;28;20057;-52
2023/01/28 07:42:55;;;;;;;35.08;13.15;;;;;;;;;;5014824;28;20042;-52
2023/01/28 07:45:22;;;;;;;31.45;13.18;;;;;;;;;;5015187;28;20066;-52
2023/01/28 07:47:56;;;;;;;30.02;12.27;;;;;;;;;;5011785;28;20185;-52
2023/01/28 07:50:23;;;;;;;32.42;14.75;;;;;;;;;;4994840;28;20092;-50
2023/01/28 07:52:49;;;;;;;36.05;13.65;;;;;;;;;;4995038;28;20047;-52
2023/01/28 07:55:17;;;;;;;32.40;12.65;;;;;;;;;;4995096;28;20061;-53
2023/01/28 07:57:51;;;;;;;27.95;12.35;;;;;;;;;;4995043;28;20054;-52
2023/01/28 08:00:19;;;;;;;34.03;14.73;;;;;;;;;;4995081;28;20053;-51
2023/01/28 08:02:47;;;;;;;32.97;14.95;;;;;;;;;;4994832;28;20397;-52
2023/01/28 08:05:17;;;;;;;28.73;12.93;;;;;;;;;;4994989;28;20488;-51
2023/01/28 08:07:44;;;;;;;29.85;12.27;;;;;;;;;;4996325;28;20057;-49
2023/01/28 08:10:12;;;;;;;45.03;17.50;;;;;;;;;;5014169;28;20049;-50
2023/01/28 08:12:39;;;;;;;36.83;14.13;;;;;;;;;;5014532;28;20054;-51
2023/01/28 08:15:07;;;;;;;31.85;14.52;;;;;;;;;;5014341;28;20054;-51
2023/01/28 08:17:35;;;;;;;33.47;14.23;;;;;;;;;;5014227;28;20144;-50
2023/01/28 08:20:01;;;;;;;33.47;13.30;;;;;;;;;;5013949;28;20054;-48
2023/01/28 08:22:30;;;;;;;32.35;13.98;;;;;;;;;;5014154;28;20062;-53
2023/01/28 08:24:56;;;;;;;34.15;13.27;;;;;;;;;;5013977;28;20057;-53
2023/01/28 08:27:23;;;;;;;32.70;12.55;;;;;;;;;;5013862;28;20459;-55
2023/01/28 08:29:50;;;;;;;28.83;12.10;;;;;;;;;;5013623;28;20100;-54
2023/01/28 08:32:17;;;;;;;32.72;13.25;;;;;;;;;;5013349;28;20495;-51
2023/01/28 08:34:44;;;;;;;35.05;15.18;;;;;;;;;;5013961;28;20054;-51
2023/01/28 08:37:11;;;;;;;27.75;13.15;;;;;;;;;;5013860;28;20050;-52
2023/01/28 08:39:39;;;;;;;35.83;14.60;;;;;;;;;;5014000;28;20415;-55
2023/01/28 08:42:06;;;;;;;30.60;13.65;;;;;;;;;;5013698;28;20053;-50
2023/01/28 08:44:33;;;;;;;29.60;13.07;;;;;;;;;;5013666;28;20049;-51
2023/01/28 08:47:00;;;;;;;32.33;12.73;;;;;;;;;;5013473;28;20491;-53
2023/01/28 08:49:27;;;;;;;27.48;12.25;;;;;;;;;;5013442;28;20042;-55
2023/01/28 08:51:55;;;;;;;26.75;12.35;;;;;;;;;;5013559;28;20483;-51
2023/01/28 08:54:22;;;;;;;32.53;14.18;;;;;;;;;;5013584;28;20049;-51
2023/01/28 08:56:50;;;;;;;31.90;13.60;;;;;;;;;;5013604;28;20077;-48
2023/01/28 08:59:17;;;;;;;34.92;15.65;;;;;;;;;;5013308;28;20054;-55
2023/01/28 09:01:44;;;;;;;31.25;13.77;;;;;;;;;;5013379;28;20096;-55
2023/01/28 09:04:11;;;;;;;33.45;13.63;;;;;;;;;;5013429;28;20054;-50
2023/01/28 09:06:38;;;;;;;31.20;14.13;;;;;;;;;;5013737;28;20092;-51
2023/01/28 09:09:05;;;;;;;29.77;12.30;;;;;;;;;;5013798;28;20057;-51
2023/01/28 09:11:31;;;;;;;29.65;12.75;;;;;;;;;;5012630;28;20072;-52
2023/01/28 09:14:00;;;;;;;29.92;13.02;;;;;;;;;;5013238;28;20046;-54
2023/01/28 09:16:27;;;;;;;29.40;12.75;;;;;;;;;;5008180;28;20562;-51
2023/01/28 09:18:54;;;;;;;33.30;12.98;;;;;;;;;;4993450;28;20057;-51
2023/01/28 09:21:21;;;;;;;31.30;12.57;;;;;;;;;;4993633;28;20495;-52
2023/01/28 09:23:48;;;;;;;30.58;12.73;;;;;;;;;;4993433;28;20116;-53
2023/01/28 09:26:15;;;;;;;24.75;11.32;;;;;;;;;;4993538;28;20057;-52
2023/01/28 09:28:41;;;;;;;30.65;11.60;;;;;;;;;;4993249;28;20130;-55
2023/01/28 09:31:12;;;;;;;34.50;13.85;;;;;;;;;;4993102;28;20046;-51
2023/01/28 09:33:40;;;;;;;28.92;12.95;;;;;;;;;;4993097;28;20100;-50
2023/01/28 09:36:10;;;;;;;28.17;12.25;;;;;;;;;;4993327;28;20140;-51
2023/01/28 09:38:37;;;;;;;35.67;13.23;;;;;;;;;;4993452;28;20046;-49
2023/01/28 09:41:19;;;;;;;28.13;12.35;;;;;;;;;;4992971;28;20284;-52
2023/01/28 09:44:00;;;;;;;31.15;12.00;;;;;;;;;;4993156;28;20148;-50
2023/01/28 09:46:32;;;;;;;30.08;12.80;;;;;;;;;;4993337;28;20050;-52
2023/01/28 09:49:03;;;;;;;30.48;13.40;;;;;;;;;;4992920;28;20050;-53
2023/01/28 09:51:36;;;;;;;27.63;13.68;;;;;;;;;;4996023;28;20551;-64
2023/01/28 09:54:10;;;;;;;31.33;13.80;;;;;;;;;;4999763;28;20058;-51
2023/01/28 09:56:44;;;;;;;32.67;14.10;;;;;;;;;;4993091;28;20326;-52
2023/01/28 09:59:19;;;;;;;32.13;14.40;;;;;;;;;;4993069;28;20054;-52
2023/01/28 10:01:54;;;;;;;30.38;14.07;;;;;;;;;;5009276;28;20585;-53
2023/01/28 10:04:45;;;;;;;28.55;13.35;;;;;;;;;;5012510;28;20490;-52
2023/01/28 10:07:26;;;;;;;34.30;13.40;;;;;;;;;;5012752;28;20119;-54
2023/01/28 10:09:56;;;;;;;;;;;;;;;;;;5012930;28;20064;-51
2023/01/28 10:12:44;;;;;;;27.98;12.75;;;;;;;;;;5012200;28;19971;-56
2023/01/28 10:15:28;;;;;;;26.55;12.70;;;;;;;;;;5012457;28;20050;-55
2023/01/28 10:18:01;;;;;;;28.58;12.65;;;;;;;;;;5012486;28;20045;-51
2023/01/28 10:20:32;;;;;;;28.63;13.07;;;;;;;;;;5012030;28;20053;-62
2023/01/28 10:23:04;;;;;;;33.08;14.20;;;;;;;;;;5011250;28;20066;-66
2023/01/28 10:25:32;;;;;;;29.85;13.18;;;;;;;;;;5012260;28;20046;-52
2023/01/28 10:28:01;;;;;;;30.77;13.35;;;;;;;;;;5011838;28;20053;-54
2023/01/28 10:30:31;;;;;;;32.45;14.52;;;;;;;;;;5012299;28;20076;-54
2023/01/28 10:33:04;;;;;;;35.00;14.93;;;;;;;;;;5011910;28;20049;-54
2023/01/28 10:35:37;;;;;;;28.33;13.20;;;;;;;;;;5012193;28;20042;-53
2023/01/28 10:38:07;;;;;;;25.67;12.57;;;;;;;;;;5012228;28;20046;-53
2023/01/28 10:40:35;;;;;;;30.45;14.02;;;;;;;;;;5012260;28;20479;-67
2023/01/28 10:43:02;;;;;;;32.20;16.30;;;;;;;;;;5011813;28;20042;-51
2023/01/28 10:45:35;;;;;;;28.90;13.52;;;;;;;;;;5000409;28;20050;-51
2023/01/28 10:48:09;;;;;;;27.05;13.48;;;;;;;;;;4992873;28;20046;-49
2023/01/28 10:50:36;;;;;;;29.48;13.30;;;;;;;;;;4992644;28;20451;-53
2023/01/28 10:53:07;;;;;;;28.17;12.85;;;;;;;;;;4992450;28;20485;-48
2023/01/28 10:55:35;;;;;;;;;;;;;;;;;;4993237;28;20539;-53
2023/01/28 10:58:04;;;;;;;30.60;12.52;;;;;;;;;;4992698;28;19968;-50
2023/01/28 11:00:37;;;;;;;24.95;11.73;;;;;;;;;;4992868;28;20054;-52
2023/01/28 11:03:06;;;;;;;28.10;12.77;;;;;;;;;;4992720;28;20050;-48
2023/01/28 11:05:33;;;;;;;28.83;12.85;;;;;;;;;;4992780;28;20050;-53
2023/01/28 11:08:05;;;;;;;26.90;12.15;;;;;;;;;;4992569;28;20050;-54
2023/01/28 11:10:34;;;;;;;27.02;11.60;;;;;;;;;;4992121;28;20046;-51
2023/01/28 11:13:04;;;;;;;27.40;12.27;;;;;;;;;;4992272;28;20046;-56
2023/01/28 11:15:33;;;;;;;25.05;11.15;;;;;;;;;;4992023;28;20082;-55
2023/01/28 11:18:02;;;;;;;27.75;11.95;;;;;;;;;;4992440;28;20050;-52
2023/01/28 11:20:36;;;;;;;25.85;12.20;;;;;;;;;;5013201;22;20081;-71
2023/01/28 11:23:03;;;;;;;25.10;10.70;;;;;;;;;;5007693;28;20136;-72
2023/01/28 11:25:33;;;;;;;24.70;11.75;;;;;;;;;;5007293;28;20125;-72
2023/01/28 11:28:01;;;;;;;25.15;11.05;;;;;;;;;;4980354;28;20070;-74
2023/01/28 11:30:29;;;;;;;26.60;11.65;;;;;;;;;;4975433;28;20046;-71
2023/01/28 11:32:59;;;;;;;22.88;10.88;;;;;;;;;;4992848;28;20125;-72
2023/01/28 11:35:29;;;;;;;26.60;12.30;;;;;;;;;;4994620;28;20128;-70
2023/01/28 11:37:57;;;;;;;27.23;10.95;;;;;;;;;;4995768;28;20086;-71
2023/01/28 11:40:24;;;;;;;26.83;12.52;;;;;;;;;;4976451;28;20383;-72
2023/01/28 11:42:52;;;;;;;26.30;11.07;;;;;;;;;;4976600;28;20109;-71
2023/01/28 11:45:22;;;;;;;27.65;10.70;;;;;;;;;;4983668;28;20084;-71
2023/01/28 11:48:00;;;;;;;33.10;14.13;;;;;;;;;;5015518;28;20134;-72
2023/01/28 11:50:35;;;;;;;27.60;12.18;;;;;;;;;;5012473;28;20528;-71
2023/01/28 11:53:39;;;;;;;26.02;12.70;;;;;;;;;;5001036;28;20046;-72
2023/01/28 11:56:31;;;;;;;26.10;11.20;;;;;;;;;;5005992;28;20045;-71
2023/01/28 11:59:09;;;;;;;25.30;11.55;;;;;;;;;;5006552;28;20054;-74
2023/01/28 12:01:46;;;;;;;21.75;10.38;;;;;;;;;;4994261;28;20489;-72
2023/01/28 12:04:22;;;;;;;24.98;10.63;;;;;;;;;;4994791;28;20042;-72
2023/01/28 12:07:21;;;;;;;27.35;13.30;;;;;;;;;;4994926;28;20054;-72
2023/01/28 12:09:55;;;;;;;28.45;13.43;;;;;;;;;;4994675;28;20133;-72
2023/01/28 12:13:12;;;;;;;29.92;13.15;;;;;;;;;;4994808;28;20057;-72
2023/01/28 12:16:14;;;;;;;25.83;11.20;;;;;;;;;;4990684;28;20465;-72
2023/01/28 12:19:09;;;;;;;26.15;11.95;;;;;;;;;;4984672;28;20391;-72
2023/01/28 12:21:51;;;;;;;27.75;12.50;;;;;;;;;;4999273;28;20458;-72
2023/01/28 12:24:29;;;;;;;26.08;13.07;;;;;;;;;;4995887;28;20053;-72
2023/01/28 12:27:07;;;;;;;24.95;12.93;;;;;;;;;;5003822;28;20670;-74
2023/01/28 12:29:41;;;;;;;27.98;12.77;;;;;;;;;;5012358;28;20049;-72
2023/01/28 12:32:37;;;;;;;28.80;12.82;;;;;;;;;;4988482;28;20053;-71
2023/01/28 12:35:32;;;;;;;27.70;12.25;;;;;;;;;;4995904;28;20517;-71
2023/01/28 12:38:13;;;;;;;26.73;12.85;;;;;;;;;;4996127;28;20040;-73
2023/01/28 12:40:52;;;;;;;39.40;16.77;;;;;;;;;;4994927;28;20042;-73
2023/01/28 12:43:25;;;;;;;32.75;14.10;;;;;;;;;;4994908;28;20046;-72
2023/01/28 12:45:55;;;;;;;32.78;13.25;;;;;;;;;;4993728;28;20497;-70
2023/01/28 12:48:27;;;;;;;24.90;11.37;;;;;;;;;;4994494;28;20509;-71
2023/01/28 12:51:00;;;;;;;29.63;12.75;;;;;;;;;;4993866;28;20046;-73
2023/01/28 12:53:36;;;;;;;30.60;13.35;;;;;;;;;;4994343;28;20100;-72
2023/01/28 12:56:08;;;;;;;32.20;12.43;;;;;;;;;;4994409;28;20043;-72
2023/01/28 12:58:42;;;;;;;27.90;12.32;;;;;;;;;;4975381;28;20138;-72
2023/01/28 13:01:14;;;;;;;26.20;11.75;;;;;;;;;;4976025;28;20646;-72
2023/01/28 13:03:49;;;;;;;26.60;12.13;;;;;;;;;;4989855;28;20050;-73
2023/01/28 13:06:24;;;;;;;28.08;13.43;;;;;;;;;;4995460;28;20125;-72
2023/01/28 13:08:58;;;;;;;28.23;12.27;;;;;;;;;;4994255;28;20050;-73
2023/01/28 13:11:32;;;;;;;25.58;11.38;;;;;;;;;;4994328;28;20074;-73
2023/01/28 13:14:01;;;;;;;28.13;11.52;;;;;;;;;;4993822;28;20079;-72
2023/01/28 13:16:27;;;;;;;23.85;10.60;;;;;;;;;;4983773;28;20133;-72
2023/01/28 13:19:05;;;;;;;23.25;9.93;;;;;;;;;;4993765;28;20128;-72
2023/01/28 13:21:35;;;;;;;26.63;10.68;;;;;;;;;;4993894;28;20133;-73
2023/01/28 13:24:18;;;;;;;24.27;10.77;;;;;;;;;;4993568;28;20046;-72
2023/01/28 13:26:46;;;;;;;24.25;9.68;;;;;;;;;;4993705;28;20050;-72
2023/01/28 13:29:31;;;;;;;24.45;11.18;;;;;;;;;;4993989;28;20046;-73
2023/01/28 13:32:00;;;;;;;27.13;11.05;;;;;;;;;;4993717;28;20148;-73
2023/01/28 13:34:36;;;;;;;25.83;10.60;;;;;;;;;;4993917;28;20577;-71
2023/01/28 13:40:27;;;;;;;29.85;12.00;;;;;;;;;;4988325;28;20085;-74
2023/01/28 13:43:02;;;;;;;22.33;10.02;;;;;;;;;;5000842;28;20404;-74
2023/01/28 13:45:31;;;;;;;24.05;11.18;;;;;;;;;;4993680;28;20046;-73
2023/01/28 13:48:05;;;;;;;26.60;10.50;;;;;;;;;;4995752;28;20112;-74
2023/01/28 13:50:39;;;;;;;25.33;10.25;;;;;;;;;;4994810;28;20606;-76
2023/01/28 13:53:19;;;;;;;24.65;10.88;;;;;;;;;;4994463;28;20050;-71
2023/01/28 13:55:47;;;;;;;26.48;10.55;;;;;;;;;;4994518;28;20132;-73
2023/01/28 13:58:51;;;;;;;24.17;11.20;;;;;;;;;;4997464;28;20052;-71
2023/01/28 14:01:48;;;;;;;25.25;11.02;;;;;;;;;;4990103;28;20054;-72
2023/01/28 14:04:53;;;;;;;28.02;11.85;;;;;;;;;;4993932;28;20501;-73
2023/01/28 14:07:47;;;;;;;28.95;12.23;;;;;;;;;;4962179;28;20058;-72
2023/01/28 14:10:50;;;;;;;27.15;11.25;;;;;;;;;;4987674;28;20061;-72
2023/01/28 14:13:41;;;;;;;33.28;12.93;;;;;;;;;;4933162;29;20056;-73
2023/01/28 14:16:38;;;;;;;28.83;12.57;;;;;;;;;;4992001;28;20122;-74
2023/01/28 14:19:11;;;;;;;28.15;13.02;;;;;;;;;;4974058;28;20057;-72
2023/01/28 14:21:38;;;;;;;29.75;12.85;;;;;;;;;;4989362;28;20046;-74
2023/01/28 14:24:05;;;;;;;27.08;13.05;;;;;;;;;;4992910;28;20072;-72
2023/01/28 14:26:44;;;;;;;26.88;11.65;;;;;;;;;;4992713;28;20050;-72
2023/01/28 14:29:21;;;;;;;28.83;12.75;;;;;;;;;;4996043;28;20055;-78
2023/01/28 14:31:48;;;;;;;35.78;15.02;;;;;;;;;;4989399;28;20050;-72
2023/01/28 14:34:23;;;;;;;29.50;12.95;;;;;;;;;;4992712;28;20510;-72
2023/01/28 14:36:50;;;;;;;27.58;12.77;;;;;;;;;;4993597;28;20516;-72
2023/01/28 14:39:19;;;;;;;27.17;11.90;;;;;;;;;;4992838;28;20077;-73
2023/01/28 14:41:49;;;;;;;25.20;10.57;;;;;;;;;;4992257;28;20050;-72
2023/01/28 14:44:27;;;;;;;22.30;10.23;;;;;;;;;;4991970;28;20053;-72
2023/01/28 14:47:13;;;;;;;22.88;9.35;;;;;;;;;;4973192;28;20050;-71
2023/01/28 14:49:55;;;;;;;22.42;10.13;;;;;;;;;;4981318;28;20403;-70
2023/01/28 14:52:42;;;;;;;24.85;11.00;;;;;;;;;;4989131;28;20042;-70
2023/01/28 14:55:22;;;;;;;24.63;10.80;;;;;;;;;;4982201;28;20126;-72
2023/01/28 14:57:52;;;;;;;23.40;10.32;;;;;;;;;;4991073;28;20050;-71
2023/01/28 15:00:21;;;;;;;23.40;10.88;;;;;;;;;;4991071;28;20050;-70
2023/01/28 15:02:48;;;;;;;29.42;11.77;;;;;;;;;;4991234;28;20090;-73
2023/01/28 15:05:19;;;;;;;23.30;10.13;;;;;;;;;;4995003;28;20106;-72
2023/01/28 15:07:47;;;;;;;24.27;11.38;;;;;;;;;;4994017;28;20042;-71
2023/01/28 15:10:19;;;;;;;25.90;11.18;;;;;;;;;;4992443;28;20047;-73
2023/01/28 15:12:50;;;;;;;28.08;11.07;;;;;;;;;;4993656;28;20048;-71
2023/01/28 15:15:23;;;;;;;22.55;10.77;;;;;;;;;;4994652;28;20057;-72
2023/01/28 15:17:51;;;;;;;21.30;10.23;;;;;;;;;;4994171;28;20050;-70